Time;durP1;ratioP1;P1;durP2;ratioP2;P2;SDS_P1;SDS_P2;PMS_P1;PMS_P2;Temp;Humidity;BMP_temperature;BMP_pressure;BME280_temperature;BME280_humidity;BME280_pressure;Samples;Min_cycle;Max_cycle;Signal;HPM_P1;HPM_P2
2024/01/21 00:01:54;;;;;;;;;;;;;;;-144.99;71.11;52619.31;5015029;28;19961;-73
2024/01/21 00:04:22;;;;;;;;;;;;;;;-144.99;71.17;52643.78;5019895;28;20290;-73
2024/01/21 00:06:49;;;;;;;;;;;;;;;-144.99;71.06;52664.16;5021388;28;19929;-75
2024/01/21 00:09:15;;;;;;;;;;;;;;;-144.99;70.99;52623.38;5021013;28;20384;-76
2024/01/21 00:11:42;;;;;;;;;;;;;;;-144.99;71.04;52651.94;5018026;28;19930;-75
2024/01/21 00:14:08;;;;;;;;;;;;;;;-144.99;70.67;52647.84;5025594;28;19991;-75
2024/01/21 00:16:35;;;;;;;;;;;;;;;-144.99;70.42;52619.31;5020663;28;20019;-76
2024/01/21 00:19:01;;;;;;;;;;;;;;;-144.99;71.08;52586.69;5011961;28;19929;-75
2024/01/21 00:21:29;;;;;;;;;;;;;;;-144.99;70.66;52639.69;5024938;28;20395;-76
2024/01/21 00:23:56;;;;;;;;;;;;;;;-144.99;70.60;52639.69;5015684;28;19993;-70
2024/01/21 00:26:22;;;;;;;;;;;;;;;-144.99;70.72;52631.53;5023539;28;19965;-79
2024/01/21 00:28:49;;;;;;;;;;;;;;;-144.99;70.93;52627.47;5025997;28;20351;-78
2024/01/21 00:31:16;;;;;;;;;;;;;;;-144.99;70.73;52619.31;5020341;28;19959;-79
2024/01/21 00:33:42;;;;;;;;;;;;;;;-144.99;71.15;52656.00;5024195;28;19973;-78
2024/01/21 00:36:11;;;;;;;;;;;;;;;-144.99;71.03;52615.25;5018792;28;20020;-79
2024/01/21 00:38:41;;;;;;;;;;;;;;;-144.99;71.30;52635.63;5027924;28;20371;-79
2024/01/21 00:41:08;;;;;;;;;;;;;;;-144.99;71.23;52635.63;5021502;28;19964;-77
2024/01/21 00:43:34;;;;;;;;;;;;;;;-144.99;71.21;52668.22;5021598;28;19976;-77
2024/01/21 00:46:04;;;;;;;;;;;;;;;-144.99;71.44;52623.38;5017105;28;20012;-75
2024/01/21 00:48:31;;;;;;;;;;;;;;;-144.99;71.17;52635.63;5036079;28;20524;-75
2024/01/21 00:50:57;;;;;;;;;;;;;;;-144.99;71.42;52631.53;5018557;28;19965;-76
2024/01/21 00:53:24;;;;;;;;;;;;;;;-144.99;71.76;52647.84;5025528;28;20020;-76
2024/01/21 00:55:51;;;;;;;;;;;;;;;-144.99;71.39;52613.19;5008861;28;20289;-76
2024/01/21 00:58:18;;;;;;;;;;;;;;;-144.99;71.44;52584.66;5013737;28;19937;-74
2024/01/21 01:00:44;;;;;;;;;;;;;;;-144.99;71.73;52637.66;5026702;28;20428;-75
2024/01/21 01:03:11;;;;;;;;;;;;;;;-144.99;71.49;52670.28;5021531;28;20019;-78
2024/01/21 01:05:37;;;;;;;;;;;;;;;-144.99;71.80;52633.59;5023784;28;19925;-78
2024/01/21 01:08:04;;;;;;;;;;;;;;;-144.99;71.77;52672.31;5014746;28;19937;-78
2024/01/21 01:10:31;;;;;;;;;;;;;;;-144.99;71.81;52688.63;5022560;28;19953;-79
2024/01/21 01:12:59;;;;;;;;;;;;;;;-144.99;71.77;52619.31;5022039;28;20011;-70
2024/01/21 01:15:25;;;;;;;;;;;;;;;-144.99;71.55;52656.00;5012190;28;19929;-70
2024/01/21 01:17:52;;;;;;;;;;;;;;;-144.99;71.71;52619.31;5022445;28;19976;-71
2024/01/21 01:20:18;;;;;;;;;;;;;;;-144.99;71.44;52684.53;5022547;28;20004;-71
2024/01/21 01:22:45;;;;;;;;;;;;;;;-144.99;71.24;52651.94;5015305;28;19980;-72
2024/01/21 01:25:12;;;;;;;;;;;;;;;-144.99;70.98;52635.63;5018752;28;20008;-68
2024/01/21 01:27:38;;;;;;;;;;;;;;;-144.99;70.83;52643.78;5016625;28;19933;-68
2024/01/21 01:30:07;;;;;;;;;;;;;;;-144.99;70.73;52635.63;4665809;28;9999727;-67
2024/01/21 01:32:34;;;;;;;;;;;;;;;-144.99;70.67;52643.78;5013587;28;20284;-67
2024/01/21 01:35:01;;;;;;;;;;;;;;;-144.99;70.73;52647.84;5013176;28;19964;-68
2024/01/21 01:37:27;;;;;;;;;;;;;;;-144.99;70.87;52680.47;5012810;28;19933;-68
2024/01/21 01:39:53;;;;;;;;;;;;;;;-144.99;70.51;52666.19;5027319;28;20370;-68
2024/01/21 01:42:20;;;;;;;;;;;;;;;-144.99;70.09;52627.47;5021134;28;20036;-69
2024/01/21 01:44:46;;;;;;;;;;;;;;;-144.99;70.23;52651.94;5021466;28;19964;-68
2024/01/21 01:47:14;;;;;;;;;;;;;;;-144.99;70.27;52631.53;5023594;28;19929;-69
2024/01/21 01:49:42;;;;;;;;;;;;;;;-144.99;69.68;52668.22;5027772;28;19937;-70
2024/01/21 01:52:09;;;;;;;;;;;;;;;-144.99;69.68;52676.38;5021827;28;19925;-70
2024/01/21 01:54:37;;;;;;;;;;;;;;;-144.99;70.01;52656.00;5020209;28;19925;-70
2024/01/21 01:57:04;;;;;;;;;;;;;;;-144.99;70.05;52647.84;5020526;28;19964;-67
2024/01/21 01:59:33;;;;;;;;;;;;;;;-144.99;69.50;52617.28;5019834;28;19929;-70
2024/01/21 02:01:59;;;;;;;;;;;;;;;-144.99;69.45;52619.31;5019377;28;20012;-75
2024/01/21 02:04:27;;;;;;;;;;;;;;;-144.99;69.59;52664.16;5031222;28;20124;-74
2024/01/21 02:06:54;;;;;;;;;;;;;;;-144.99;69.07;52660.09;5016769;28;19984;-75
2024/01/21 02:09:20;;;;;;;;;;;;;;;-144.99;69.13;52631.53;5023588;28;19980;-71
2024/01/21 02:11:47;;;;;;;;;;;;;;;-144.99;69.07;52676.38;5020598;28;20020;-70
2024/01/21 02:14:13;;;;;;;;;;;;;;;-144.99;69.20;52631.53;5023462;28;19925;-70
2024/01/21 02:16:40;;;;;;;;;;;;;;;-144.99;69.00;52692.69;5020024;28;20371;-71
2024/01/21 02:19:11;;;;;;;;;;;;;;;-144.99;68.80;52643.78;5018934;28;20016;-71
2024/01/21 02:21:39;;;;;;;;;;;;;;;-144.99;68.64;52619.31;5014502;28;19926;-72
2024/01/21 02:24:07;;;;;;;;;;;;;;;-144.99;69.18;52621.34;5013543;28;20324;-71
2024/01/21 02:26:33;;;;;;;;;;;;;;;-144.99;68.82;52635.63;5017051;28;19979;-71
2024/01/21 02:29:00;;;;;;;;;;;;;;;-144.99;69.03;52615.25;5017356;28;19937;-72
2024/01/21 02:31:26;;;;;;;;;;;;;;;-144.99;68.91;52647.84;5019551;28;20023;-72
2024/01/21 02:33:53;;;;;;;;;;;;;;;-144.99;68.95;52635.63;5018451;28;19936;-72
2024/01/21 02:36:19;;;;;;;;;;;;;;;-144.99;69.08;52611.16;5010619;28;19971;-72
2024/01/21 02:38:46;;;;;;;;;;;;;;;-144.99;68.92;52651.94;5026125;28;19973;-72
2024/01/21 02:41:14;;;;;;;;;;;;;;;-144.99;68.97;52639.69;5015392;28;19929;-71
2024/01/21 02:43:40;;;;;;;;;;;;;;;-144.99;69.26;52651.94;5009464;28;19960;-70
2024/01/21 02:46:06;;;;;;;;;;;;;;;-144.99;69.43;52647.84;5013095;28;19925;-70
2024/01/21 02:48:33;;;;;;;;;;;;;;;-144.99;69.57;52627.47;5027575;28;19985;-70
2024/01/21 02:50:59;;;;;;;;;;;;;;;-144.99;69.74;52660.09;5019818;28;20016;-69
2024/01/21 02:53:26;;;;;;;;;;;;;;;-144.99;69.00;52680.47;5018677;28;20537;-70
2024/01/21 02:55:52;;;;;;;;;;;;;;;-144.99;68.70;52627.47;5017142;28;20162;-69
2024/01/21 02:58:19;;;;;;;;;;;;;;;-144.99;68.79;52651.94;5020400;28;19979;-70
2024/01/21 03:00:46;;;;;;;;;;;;;;;-144.99;68.30;52635.63;5028436;28;19930;-71
2024/01/21 03:03:12;;;;;;;;;;;;;;;-144.99;67.96;52672.31;5015041;28;19929;-70
2024/01/21 03:05:38;;;;;;;;;;;;;;;-144.99;68.23;52692.69;5012126;28;20032;-70
2024/01/21 03:08:05;;;;;;;;;;;;;;;-144.99;68.13;52672.31;5017910;28;20012;-69
2024/01/21 03:10:32;;;;;;;;;;;;;;;-144.99;68.47;52643.78;5012424;28;20348;-69
2024/01/21 03:13:00;;;;;;;;;;;;;;;-144.99;68.26;52664.16;5019794;28;20558;-71
2024/01/21 03:15:28;;;;;;;;;;;;;;;-144.99;68.30;52658.03;5017117;28;19937;-70
2024/01/21 03:17:54;;;;;;;;;;;;;;;-144.99;68.45;52639.69;5016640;28;20044;-70
2024/01/21 03:20:21;;;;;;;;;;;;;;;-144.99;68.23;52623.38;5018151;28;20360;-70
2024/01/21 03:22:47;;;;;;;;;;;;;;;-144.99;68.18;52664.16;5019644;28;19925;-70
2024/01/21 03:25:14;;;;;;;;;;;;;;;-144.99;68.36;52647.84;5022682;28;20382;-74
2024/01/21 03:27:40;;;;;;;;;;;;;;;-144.99;68.53;52641.72;5016474;28;20013;-73
2024/01/21 03:30:07;;;;;;;;;;;;;;;-144.99;67.78;52672.31;5019222;28;19929;-72
2024/01/21 03:32:35;;;;;;;;;;;;;;;-144.99;68.21;52660.09;5019345;28;20395;-74
2024/01/21 03:35:02;;;;;;;;;;;;;;;-144.99;67.88;52643.78;5027266;28;19987;-72
2024/01/21 03:37:28;;;;;;;;;;;;;;;-144.99;68.16;52645.81;5018104;28;19991;-75
2024/01/21 03:39:54;;;;;;;;;;;;;;;-144.99;67.68;52649.88;5034240;28;20032;-72
2024/01/21 03:42:21;;;;;;;;;;;;;;;-144.99;67.66;52651.94;5017918;28;20217;-69
2024/01/21 03:44:49;;;;;;;;;;;;;;;-144.99;67.70;52692.69;5018892;28;20010;-72
2024/01/21 03:47:15;;;;;;;;;;;;;;;-144.99;67.88;52627.47;5018890;28;20132;-71
2024/01/21 03:49:43;;;;;;;;;;;;;;;-144.99;67.47;52629.50;5019693;28;20359;-70
2024/01/21 03:52:10;;;;;;;;;;;;;;;-144.99;67.68;52603.00;5018502;28;19935;-72
2024/01/21 03:54:36;;;;;;;;;;;;;;;-144.99;67.95;52660.09;5029331;28;19984;-72
2024/01/21 03:57:03;;;;;;;;;;;;;;;-144.99;68.38;52596.88;5020091;28;19981;-70
2024/01/21 03:59:29;;;;;;;;;;;;;;;-144.99;68.55;52615.25;5017803;28;20433;-70
2024/01/21 04:01:56;;;;;;;;;;;;;;;-144.99;68.18;52672.31;5020023;28;20361;-70
2024/01/21 04:04:22;;;;;;;;;;;;;;;-144.99;68.00;52656.00;5022149;28;19971;-69
2024/01/21 04:06:50;;;;;;;;;;;;;;;-144.99;68.10;52656.00;5020784;28;20024;-70
2024/01/21 04:09:22;;;;;;;;;;;;;;;-144.99;67.96;52653.97;5020879;28;19988;-70
2024/01/21 04:11:49;;;;;;;;;;;;;;;-144.99;67.77;52672.31;5017451;28;20391;-71
2024/01/21 04:14:15;;;;;;;;;;;;;;;-144.99;67.74;52680.47;5020167;28;20340;-70
2024/01/21 04:16:42;;;;;;;;;;;;;;;-144.99;67.63;52635.63;5021378;28;20435;-70
2024/01/21 04:19:09;;;;;;;;;;;;;;;-144.99;67.99;52649.88;5020358;28;20360;-71
2024/01/21 04:21:36;;;;;;;;;;;;;;;-144.99;67.84;52635.63;5017321;28;19961;-71
2024/01/21 04:24:04;;;;;;;;;;;;;;;-144.99;67.51;52709.00;5015350;28;19933;-70
2024/01/21 04:26:31;;;;;;;;;;;;;;;-144.99;68.02;52660.09;5021835;28;19969;-71
2024/01/21 04:28:57;;;;;;;;;;;;;;;-144.99;67.95;52627.47;5018837;28;19929;-70
2024/01/21 04:31:24;;;;;;;;;;;;;;;-144.99;67.83;52623.38;5028544;28;20087;-70
2024/01/21 04:33:50;;;;;;;;;;;;;;;-144.99;68.07;52627.47;5026025;28;19960;-70
2024/01/21 04:36:17;;;;;;;;;;;;;;;-144.99;67.57;52664.16;5012573;28;19987;-71
2024/01/21 04:38:44;;;;;;;;;;;;;;;-144.99;67.55;52651.94;5030018;28;19925;-72
2024/01/21 04:41:12;;;;;;;;;;;;;;;-144.99;67.75;52627.47;5014584;28;19925;-72
2024/01/21 04:43:39;;;;;;;;;;;;;;;-144.99;67.46;52643.78;5022310;28;19925;-72
2024/01/21 04:46:06;;;;;;;;;;;;;;;-144.99;67.45;52631.53;5014564;28;19976;-69
2024/01/21 04:48:32;;;;;;;;;;;;;;;-144.99;67.52;52635.63;5019692;28;19931;-69
2024/01/21 04:50:59;;;;;;;;;;;;;;;-144.99;67.46;52676.38;5025095;28;20362;-70
2024/01/21 04:53:25;;;;;;;;;;;;;;;-144.99;66.49;52647.84;5024921;28;19983;-70
2024/01/21 04:55:52;;;;;;;;;;;;;;;-144.99;67.09;52651.94;5013053;28;19933;-70
2024/01/21 04:58:20;;;;;;;;;;;;;;;-144.99;67.12;52662.13;5016408;28;19980;-70
2024/01/21 05:00:46;;;;;;;;;;;;;;;-144.99;66.93;52639.69;5023839;28;19928;-70
2024/01/21 05:03:13;;;;;;;;;;;;;;;-144.99;67.79;52680.47;5023089;28;19926;-70
2024/01/21 05:05:39;;;;;;;;;;;;;;;-144.99;67.59;52660.09;5013854;28;19925;-70
2024/01/21 05:08:06;;;;;;;;;;;;;;;-144.99;67.75;52631.53;5023423;28;20023;-70
2024/01/21 05:10:32;;;;;;;;;;;;;;;-144.99;67.95;52623.38;5013858;28;19979;-71
2024/01/21 05:12:59;;;;;;;;;;;;;;;-144.99;67.29;52639.69;5026978;28;20357;-67
2024/01/21 05:15:26;;;;;;;;;;;;;;;-144.99;67.71;52664.16;5018449;28;20320;-69
2024/01/21 05:17:56;;;;;;;;;;;;;;;-144.99;67.98;52688.63;5017745;28;20039;-70
2024/01/21 05:20:22;;;;;;;;;;;;;;;-144.99;67.85;52645.81;5022043;28;20008;-69
2024/01/21 05:22:50;;;;;;;;;;;;;;;-144.99;67.34;52680.47;5022778;28;20033;-67
2024/01/21 05:25:16;;;;;;;;;;;;;;;-144.99;67.45;52647.84;5017025;28;19929;-71
2024/01/21 05:27:43;;;;;;;;;;;;;;;-144.99;67.39;52651.94;5015675;28;19977;-71
2024/01/21 05:30:11;;;;;;;;;;;;;;;-144.99;67.52;52635.63;5023515;28;20048;-70
2024/01/21 05:32:39;;;;;;;;;;;;;;;-144.99;67.16;52623.38;5027752;28;19947;-71
2024/01/21 05:35:07;;;;;;;;;;;;;;;-144.99;66.93;52680.47;5017964;28;20411;-68
2024/01/21 05:37:33;;;;;;;;;;;;;;;-144.99;66.95;52641.72;5014582;28;19969;-68
2024/01/21 05:40:00;;;;;;;;;;;;;;;-144.99;66.63;52660.09;5021303;28;20351;-68
2024/01/21 05:42:26;;;;;;;;;;;;;;;-144.99;66.33;52619.31;5017732;28;20399;-66
2024/01/21 05:44:53;;;;;;;;;;;;;;;-144.99;65.78;52664.16;5023158;28;20006;-66
2024/01/21 05:47:19;;;;;;;;;;;;;;;-144.99;66.22;52647.84;5023769;28;20418;-66
2024/01/21 05:49:47;;;;;;;;;;;;;;;-144.99;65.68;52700.84;5017823;28;20082;-69
2024/01/21 05:52:13;;;;;;;;;;;;;;;-144.99;65.79;52680.47;5017495;28;20467;-67
2024/01/21 05:54:40;;;;;;;;;;;;;;;-144.99;65.54;52656.00;5016479;28;19925;-68
2024/01/21 05:57:06;;;;;;;;;;;;;;;-144.99;64.93;52656.00;5018148;28;20309;-69
2024/01/21 05:59:33;;;;;;;;;;;;;;;-144.99;65.25;52627.47;5018796;28;19960;-68
2024/01/21 06:01:59;;;;;;;;;;;;;;;-144.99;65.35;52651.94;5013507;28;19929;-69
2024/01/21 06:04:26;;;;;;;;;;;;;;;-144.99;64.46;52656.00;5018870;28;19929;-68
2024/01/21 06:06:54;;;;;;;;;;;;;;;-144.99;64.30;52635.63;5020125;28;20027;-69
2024/01/21 06:09:21;;;;;;;;;;;;;;;-144.99;64.82;52639.69;5017662;28;20120;-69
2024/01/21 06:11:47;;;;;;;;;;;;;;;-144.99;64.81;52631.53;5016263;28;19998;-73
2024/01/21 06:14:13;;;;;;;;;;;;;;;-144.99;65.59;52668.22;5044349;28;20067;-65
2024/01/21 06:16:40;;;;;;;;;;;;;;;-144.99;64.49;52660.09;5019430;28;20032;-67
2024/01/21 06:19:06;;;;;;;;;;;;;;;-144.99;64.84;52631.53;5017567;28;19968;-70
2024/01/21 06:21:33;;;;;;;;;;;;;;;-144.99;64.18;52635.63;5021326;28;19995;-69
2024/01/21 06:24:01;;;;;;;;;;;;;;;-144.99;64.23;52664.16;5019604;28;20379;-70
2024/01/21 06:26:28;;;;;;;;;;;;;;;-144.99;64.00;52619.31;5021599;28;19926;-69
2024/01/21 06:28:54;;;;;;;;;;;;;;;-144.99;64.52;52643.78;5016188;28;19985;-65
2024/01/21 06:31:20;;;;;;;;;;;;;;;-144.99;64.84;52623.38;5017585;28;20021;-66
2024/01/21 06:33:47;;;;;;;;;;;;;;;-144.99;64.72;52629.50;5022829;28;20024;-65
2024/01/21 06:36:13;;;;;;;;;;;;;;;-144.99;64.25;52635.63;5024687;28;19944;-69
2024/01/21 06:38:40;;;;;;;;;;;;;;;-144.99;64.45;52670.28;5021093;28;20387;-70
2024/01/21 06:41:07;;;;;;;;;;;;;;;-144.99;63.93;52692.69;5022205;28;19936;-70
2024/01/21 06:43:34;;;;;;;;;;;;;;;-144.99;64.14;52647.84;5035941;28;20348;-72
2024/01/21 06:46:00;;;;;;;;;;;;;;;-144.99;63.94;52666.19;5018829;28;19956;-70
2024/01/21 06:48:27;;;;;;;;;;;;;;;-144.99;64.14;52664.16;5028288;28;19968;-69
2024/01/21 06:50:54;;;;;;;;;;;;;;;-144.99;64.60;52678.44;5024134;28;20074;-69
2024/01/21 06:53:20;;;;;;;;;;;;;;;-144.99;63.99;52619.31;5016047;28;19984;-70
2024/01/21 06:55:47;;;;;;;;;;;;;;;-144.99;63.98;52639.69;5020799;28;20402;-69
2024/01/21 06:58:15;;;;;;;;;;;;;;;-144.99;64.60;52629.50;5024818;28;19929;-68
2024/01/21 07:00:41;;;;;;;;;;;;;;;-144.99;64.17;52643.78;5015505;28;20036;-69
2024/01/21 07:03:08;;;;;;;;;;;;;;;-144.99;63.98;52686.59;5012368;28;20009;-74
2024/01/21 07:05:35;;;;;;;;;;;;;;;-144.99;64.24;52656.00;5019433;28;20303;-74
2024/01/21 07:08:01;;;;;;;;;;;;;;;-144.99;64.38;52660.09;5031997;28;19978;-74
2024/01/21 07:10:28;;;;;;;;;;;;;;;-144.99;64.01;52619.31;5023780;28;19965;-74
2024/01/21 07:12:56;;;;;;;;;;;;;;;-144.99;64.42;52660.09;5032642;28;19929;-74
2024/01/21 07:15:23;;;;;;;;;;;;;;;-144.99;64.08;52647.84;5032471;28;20482;-72
2024/01/21 07:17:50;;;;;;;;;;;;;;;-144.99;64.22;52645.81;5035067;28;19957;-75
2024/01/21 07:20:16;;;;;;;;;;;;;;;-144.99;63.85;52670.28;5045484;28;19926;-78
2024/01/21 07:22:43;;;;;;;;;;;;;;;-144.99;64.51;52627.47;5042484;28;19929;-78
2024/01/21 07:25:11;;;;;;;;;;;;;;;-144.99;64.23;52660.09;5028423;28;19971;-69
2024/01/21 07:27:38;;;;;;;;;;;;;;;-144.99;64.23;52645.81;5027329;28;19957;-71
2024/01/21 07:30:06;;;;;;;;;;;;;;;-144.99;64.64;52680.47;5036684;28;20363;-72
2024/01/21 07:32:33;;;;;;;;;;;;;;;-144.99;64.67;52590.78;5029421;28;19989;-72
2024/01/21 07:35:00;;;;;;;;;;;;;;;-144.99;64.94;52651.94;5030301;28;20000;-72
2024/01/21 07:37:26;;;;;;;;;;;;;;;-144.99;64.83;52639.69;5020914;28;19925;-72
2024/01/21 07:39:53;;;;;;;;;;;;;;;-144.99;64.39;52660.09;5030591;28;19987;-70
2024/01/21 07:42:19;;;;;;;;;;;;;;;-144.99;64.32;52668.22;5026101;28;20379;-71
2024/01/21 07:44:46;;;;;;;;;;;;;;;-144.99;65.00;52647.84;5020870;28;19999;-72
2024/01/21 07:47:12;;;;;;;;;;;;;;;-144.99;65.12;52651.94;5034735;28;19947;-70
2024/01/21 07:49:40;;;;;;;;;;;;;;;-144.99;64.55;52639.69;5019685;28;19932;-70
2024/01/21 07:52:07;;;;;;;;;;;;;;;-144.99;65.23;52619.31;5016730;28;19980;-69
2024/01/21 07:54:33;;;;;;;;;;;;;;;-144.99;64.82;52643.78;5019219;28;20023;-68
2024/01/21 07:57:00;;;;;;;;;;;;;;;-144.99;65.01;52676.38;5019782;28;20044;-74
2024/01/21 07:59:26;;;;;;;;;;;;;;;-144.99;64.72;52686.59;5022671;28;19973;-72
2024/01/21 08:01:52;;;;;;;;;;;;;;;-144.99;64.68;52684.53;5022393;28;19925;-69
2024/01/21 08:04:19;;;;;;;;;;;;;;;-144.99;64.60;52643.78;5023536;28;19995;-69
2024/01/21 08:06:47;;;;;;;;;;;;;;;-144.99;65.03;52680.47;5015774;28;19956;-69
2024/01/21 08:09:15;;;;;;;;;;;;;;;-144.99;65.49;52641.72;5018014;28;19925;-69
2024/01/21 08:11:42;;;;;;;;;;;;;;;-144.99;64.77;52651.94;5017991;28;19979;-69
2024/01/21 08:14:08;;;;;;;;;;;;;;;-144.99;64.91;52670.28;5020345;28;19971;-69
2024/01/21 08:16:35;;;;;;;;;;;;;;;-144.99;64.43;52656.00;5022796;28;20375;-69
2024/01/21 08:19:01;;;;;;;;;;;;;;;-144.99;65.30;52647.84;5024788;28;19932;-69
2024/01/21 08:21:28;;;;;;;;;;;;;;;-144.99;65.19;52643.78;5027916;28;19951;-69
2024/01/21 08:23:56;;;;;;;;;;;;;;;-144.99;66.32;52645.81;5028224;28;19929;-69
2024/01/21 08:26:23;;;;;;;;;;;;;;;-144.99;64.99;52609.13;5031205;28;20334;-69
2024/01/21 08:28:49;;;;;;;;;;;;;;;-144.99;64.68;52688.63;5027941;28;20007;-69
2024/01/21 08:31:16;;;;;;;;;;;;;;;-144.99;64.24;52631.53;5037060;28;20505;-69
2024/01/21 08:33:42;;;;;;;;;;;;;;;-144.99;64.28;52649.88;5021574;28;19925;-70
2024/01/21 08:36:09;;;;;;;;;;;;;;;-144.99;65.03;52653.97;5010341;28;19926;-70
2024/01/21 08:38:37;;;;;;;;;;;;;;;-144.99;64.35;52615.25;5022537;28;19929;-70
2024/01/21 08:41:05;;;;;;;;;;;;;;;-144.99;63.78;52627.47;5015931;28;19992;-70
2024/01/21 08:43:31;;;;;;;;;;;;;;;-144.99;63.80;52660.09;5018317;28;20018;-69
2024/01/21 08:45:58;;;;;;;;;;;;;;;-144.99;64.11;52651.94;5013417;28;19937;-72
2024/01/21 08:48:24;;;;;;;;;;;;;;;-144.99;63.64;52651.94;5019547;28;19952;-71
2024/01/21 08:50:51;;;;;;;;;;;;;;;-144.99;64.10;52649.88;5016829;28;19987;-72
2024/01/21 08:53:17;;;;;;;;;;;;;;;-144.99;64.26;52590.78;5027286;28;20090;-71
2024/01/21 08:55:44;;;;;;;;;;;;;;;-144.99;64.01;52651.94;5021519;28;20003;-71
2024/01/21 08:58:11;;;;;;;;;;;;;;;-144.99;63.87;52625.44;5020152;28;20287;-72
2024/01/21 09:00:38;;;;;;;;;;;;;;;-144.99;64.08;52649.88;5022218;28;19972;-72
2024/01/21 09:03:05;;;;;;;;;;;;;;;-144.99;64.35;52680.47;5018330;28;19961;-72
2024/01/21 09:05:32;;;;;;;;;;;;;;;-144.99;64.37;52656.00;5017967;28;20024;-72
2024/01/21 09:07:58;;;;;;;;;;;;;;;-144.99;64.23;52651.94;5018142;28;20024;-72
2024/01/21 09:10:25;;;;;;;;;;;;;;;-144.99;64.26;52684.53;5015082;28;20017;-71
2024/01/21 09:12:51;;;;;;;;;;;;;;;-144.99;64.30;52637.66;5021206;28;20447;-71
2024/01/21 09:15:21;;;;;;;;;;;;;;;-144.99;64.70;52643.78;5017478;28;19991;-71
2024/01/21 09:17:48;;;;;;;;;;;;;;;-144.99;64.42;52666.19;5020131;28;20549;-72
2024/01/21 09:20:15;;;;;;;;;;;;;;;-144.99;64.65;52619.31;5019446;28;19956;-72
2024/01/21 09:22:41;;;;;;;;;;;;;;;-144.99;64.45;52651.94;5021814;28;20341;-72
2024/01/21 09:25:08;;;;;;;;;;;;;;;-144.99;64.35;52598.94;5021456;28;19969;-72
2024/01/21 09:27:34;;;;;;;;;;;;;;;-144.99;65.27;52627.47;5021301;28;19988;-71
2024/01/21 09:30:01;;;;;;;;;;;;;;;-144.99;65.09;52649.88;5015706;28;19925;-72
2024/01/21 09:32:29;;;;;;;;;;;;;;;-144.99;64.64;52672.31;5016544;28;19929;-71
2024/01/21 09:34:55;;;;;;;;;;;;;;;-144.99;64.54;52660.09;5018405;28;19925;-71
2024/01/21 09:37:22;;;;;;;;;;;;;;;-144.99;64.66;52643.78;5020514;28;20359;-71
2024/01/21 09:39:48;;;;;;;;;;;;;;;-144.99;64.45;52656.00;5024657;28;19979;-72
2024/01/21 09:42:17;;;;;;;;;;;;;;;-144.99;64.29;52656.00;5021517;28;19953;-70
2024/01/21 09:44:44;;;;;;;;;;;;;;;-144.99;64.70;52623.38;5019504;28;20642;-71
2024/01/21 09:47:11;;;;;;;;;;;;;;;-144.99;64.12;52680.47;5020860;28;20347;-70
2024/01/21 09:49:39;;;;;;;;;;;;;;;-144.99;64.70;52664.16;5021044;28;20003;-70
2024/01/21 09:52:06;;;;;;;;;;;;;;;-144.99;65.30;52637.66;5020297;28;20001;-70
2024/01/21 09:54:32;;;;;;;;;;;;;;;-144.99;64.56;52641.72;5026282;28;19953;-72
2024/01/21 09:56:59;;;;;;;;;;;;;;;-144.99;65.19;52643.78;5026141;28;19971;-70
2024/01/21 09:59:28;;;;;;;;;;;;;;;-144.99;65.52;52643.78;5018330;28;20178;-70
2024/01/21 10:01:54;;;;;;;;;;;;;;;-144.99;65.18;52643.78;5013400;28;19961;-71
2024/01/21 10:04:22;;;;;;;;;;;;;;;-144.99;65.30;52668.22;5020051;28;20199;-70
2024/01/21 10:06:51;;;;;;;;;;;;;;;-144.99;65.02;52670.28;5017222;28;20300;-70
2024/01/21 10:09:19;;;;;;;;;;;;;;;-144.99;65.34;52596.88;5017595;28;19925;-70
2024/01/21 10:11:48;;;;;;;;;;;;;;;-144.99;64.98;52656.00;5014485;28;19996;-70
2024/01/21 10:14:15;;;;;;;;;;;;;;;-144.99;65.08;52643.78;5022217;28;19930;-70
2024/01/21 10:16:42;;;;;;;;;;;;;;;-144.99;65.24;52631.53;5022455;28;19936;-70
2024/01/21 10:19:12;;;;;;;;;;;;;;;-144.99;65.16;52651.94;5018986;28;19933;-70
2024/01/21 10:21:38;;;;;;;;;;;;;;;-144.99;65.14;52623.38;5021384;28;19940;-76
2024/01/21 10:24:08;;;;;;;;;;;;;;;-144.99;65.27;52639.69;5019568;28;19933;-78
2024/01/21 10:26:35;;;;;;;;;;;;;;;-144.99;65.34;52635.63;5022885;28;19926;-79
2024/01/21 10:29:02;;;;;;;;;;;;;;;-144.99;64.89;52639.69;5028895;28;19978;-79
2024/01/21 10:31:28;;;;;;;;;;;;;;;-144.99;65.52;52660.09;5014112;28;19999;-73
2024/01/21 10:33:55;;;;;;;;;;;;;;;-144.99;65.28;52647.84;5023733;28;19975;-72
2024/01/21 10:36:22;;;;;;;;;;;;;;;-144.99;65.30;52607.09;5018044;28;20375;-71
2024/01/21 10:38:52;;;;;;;;;;;;;;;-144.99;65.13;52639.69;5025858;28;20247;-72
2024/01/21 10:41:25;;;;;;;;;;;;;;;-144.99;65.19;52643.78;5018278;28;19979;-71
2024/01/21 10:43:54;;;;;;;;;;;;;;;-144.99;64.89;52607.09;5019684;28;19936;-72
2024/01/21 10:46:21;;;;;;;;;;;;;;;-144.99;65.32;52647.84;5018140;28;19960;-71
2024/01/21 10:48:48;;;;;;;;;;;;;;;-144.99;65.05;52623.38;5025108;28;19982;-71
2024/01/21 10:51:16;;;;;;;;;;;;;;;-144.99;64.68;52656.00;5014995;28;19965;-72
2024/01/21 10:53:42;;;;;;;;;;;;;;;-144.99;64.91;52619.31;5023852;28;20007;-70
2024/01/21 10:56:10;;;;;;;;;;;;;;;-144.99;65.06;52605.03;5017306;28;20391;-70
2024/01/21 10:58:38;;;;;;;;;;;;;;;-144.99;65.16;52656.00;5020003;28;19933;-70
2024/01/21 11:01:06;;;;;;;;;;;;;;;-144.99;64.45;52603.00;5031592;28;19925;-70
2024/01/21 11:03:35;;;;;;;;;;;;;;;-144.99;64.77;52621.34;5020796;28;19932;-70
2024/01/21 11:06:03;;;;;;;;;;;;;;;-144.99;64.85;52590.78;5025910;28;19932;-70
2024/01/21 11:08:30;;;;;;;;;;;;;;;-144.99;65.52;52603.00;5015755;28;20245;-70
2024/01/21 11:11:08;;;;;;;;;;;;;;;-144.99;64.89;52635.63;5013105;28;19960;-70
2024/01/21 11:13:42;;;;;;;;;;;;;;;-144.99;65.32;52627.47;5015147;28;19948;-70
2024/01/21 11:16:10;;;;;;;;;;;;;;;-144.99;64.97;52639.69;5007920;28;19929;-71
2024/01/21 11:18:37;;;;;;;;;;;;;;;-144.99;64.82;52641.72;5013023;28;20331;-69
2024/01/21 11:21:03;;;;;;;;;;;;;;;-144.99;64.67;52609.13;5008621;28;19925;-71
2024/01/21 11:23:30;;;;;;;;;;;;;;;-144.99;64.76;52631.53;5008826;28;20016;-70
2024/01/21 11:25:56;;;;;;;;;;;;;;;-144.99;64.78;52615.25;5019293;28;19972;-71
2024/01/21 11:28:27;;;;;;;;;;;;;;;-144.99;64.85;52635.63;5019001;28;20372;-69
2024/01/21 11:31:01;;;;;;;;;;;;;;;-144.99;65.61;52613.19;5015106;28;20044;-70
2024/01/21 11:33:28;;;;;;;;;;;;;;;-144.99;65.41;52623.38;5023680;28;19936;-70
2024/01/21 11:35:56;;;;;;;;;;;;;;;-144.99;65.43;52623.38;5020432;28;19925;-71
2024/01/21 11:38:23;;;;;;;;;;;;;;;-144.99;65.62;52607.09;5012061;28;19965;-69
2024/01/21 11:41:00;;;;;;;;;;;;;;;-144.99;65.82;52615.25;5018847;28;20014;-71
2024/01/21 11:43:26;;;;;;;;;;;;;;;-144.99;66.04;52668.22;5008571;28;19932;-70
2024/01/21 11:45:54;;;;;;;;;;;;;;;-144.99;65.91;52668.22;5019539;28;19933;-70
2024/01/21 11:48:28;;;;;;;;;;;;;;;-144.99;66.46;52611.16;5010261;28;19987;-69
2024/01/21 11:50:54;;;;;;;;;;;;;;;-144.99;66.52;52615.25;5013327;28;20016;-69
2024/01/21 11:53:21;;;;;;;;;;;;;;;-144.99;66.65;52635.63;5017163;28;20044;-70
2024/01/21 11:55:47;;;;;;;;;;;;;;;-144.99;67.04;52615.25;5019527;28;20004;-70
2024/01/21 11:58:15;;;;;;;;;;;;;;;-144.99;67.16;52627.47;5019393;28;20013;-71
2024/01/21 12:00:41;;;;;;;;;;;;;;;-144.99;67.28;52668.22;5019984;28;20027;-70
2024/01/21 12:03:08;;;;;;;;;;;;;;;-144.99;67.32;52643.78;5021739;28;19983;-70
2024/01/21 12:05:37;;;;;;;;;;;;;;;-144.99;67.50;52643.78;5019834;28;19957;-69
2024/01/21 12:08:05;;;;;;;;;;;;;;;-144.99;67.20;52627.47;5017414;28;20054;-70
2024/01/21 12:10:31;;;;;;;;;;;;;;;-144.99;67.49;52623.38;5015842;28;19933;-70
2024/01/21 12:12:58;;;;;;;;;;;;;;;-144.99;67.86;52641.72;5011001;28;19948;-72
2024/01/21 12:15:25;;;;;;;;;;;;;;;-144.99;67.61;52647.84;5012192;28;20300;-71
2024/01/21 12:17:54;;;;;;;;;;;;;;;-144.99;67.79;52607.09;5024115;28;19926;-70
2024/01/21 12:20:21;;;;;;;;;;;;;;;-144.99;67.91;52592.81;5016558;28;20008;-71
2024/01/21 12:22:50;;;;;;;;;;;;;;;-144.99;67.98;52615.25;5017151;28;20354;-70
2024/01/21 12:25:18;;;;;;;;;;;;;;;-144.99;67.98;52621.34;5020504;28;19942;-71